sensor_id;sensor_type;location;lat;lon;timestamp;pressure;altitude;pressure_sealevel;temperature;humidity
61618;BME280;47518;51.776;9.370;2023-02-14T00:00:40;102296.19;;;2.71;90.88
61618;BME280;47518;51.776;9.370;2023-02-14T00:03:05;102296.72;;;2.77;91.04
61618;BME280;47518;51.776;9.370;2023-02-14T00:05:31;102300.31;;;2.95;89.14
61618;BME280;47518;51.776;9.370;2023-02-14T00:07:56;102294.34;;;2.88;89.64
61618;BME280;47518;51.776;9.370;2023-02-14T00:10:21;102302.25;;;2.74;89.70
61618;BME280;47518;51.776;9.370;2023-02-14T00:12:46;102305.56;;;2.62;89.72
61618;BME280;47518;51.776;9.370;2023-02-14T00:15:12;102303.00;;;2.42;90.47
61618;BME280;47518;51.776;9.370;2023-02-14T00:17:55;102309.66;;;2.16;92.58
61618;BME280;47518;51.776;9.370;2023-02-14T00:20:22;102307.31;;;2.27;93.03
61618;BME280;47518;51.776;9.370;2023-02-14T00:22:47;102304.44;;;2.49;90.87
61618;BME280;47518;51.776;9.370;2023-02-14T00:25:13;102302.38;;;2.54;90.45
61618;BME280;47518;51.776;9.370;2023-02-14T00:27:38;102304.06;;;2.56;91.17
61618;BME280;47518;51.776;9.370;2023-02-14T00:30:06;102305.19;;;2.70;90.52
61618;BME280;47518;51.776;9.370;2023-02-14T00:32:31;102308.59;;;2.73;89.84
61618;BME280;47518;51.776;9.370;2023-02-14T00:34:57;102302.09;;;2.77;89.13
61618;BME280;47518;51.776;9.370;2023-02-14T00:37:22;102310.78;;;2.65;90.23
61618;BME280;47518;51.776;9.370;2023-02-14T00:39:48;102296.13;;;2.36;91.06
61618;BME280;47518;51.776;9.370;2023-02-14T00:42:13;102295.44;;;2.32;91.28
61618;BME280;47518;51.776;9.370;2023-02-14T00:44:39;102303.66;;;2.47;91.30
61618;BME280;47518;51.776;9.370;2023-02-14T00:47:04;102298.84;;;2.53;90.98
61618;BME280;47518;51.776;9.370;2023-02-14T00:49:29;102298.13;;;2.50;90.46
61618;BME280;47518;51.776;9.370;2023-02-14T00:51:55;102295.19;;;2.18;91.43
61618;BME280;47518;51.776;9.370;2023-02-14T00:54:20;102299.06;;;2.13;91.93
61618;BME280;47518;51.776;9.370;2023-02-14T00:56:46;102307.69;;;2.00;92.81
61618;BME280;47518;51.776;9.370;2023-02-14T00:59:11;102297.41;;;1.91;92.25
61618;BME280;47518;51.776;9.370;2023-02-14T01:01:37;102305.28;;;1.94;93.16
61618;BME280;47518;51.776;9.370;2023-02-14T01:04:03;102308.41;;;2.04;92.03
61618;BME280;47518;51.776;9.370;2023-02-14T01:06:29;102312.91;;;2.22;91.02
61618;BME280;47518;51.776;9.370;2023-02-14T01:08:54;102315.16;;;1.94;92.26
61618;BME280;47518;51.776;9.370;2023-02-14T01:11:22;102322.03;;;1.81;92.03
61618;BME280;47518;51.776;9.370;2023-02-14T01:13:48;102323.56;;;1.67;93.49
61618;BME280;47518;51.776;9.370;2023-02-14T01:16:18;102318.41;;;1.63;93.69
61618;BME280;47518;51.776;9.370;2023-02-14T01:18:45;102327.06;;;1.49;94.04
61618;BME280;47518;51.776;9.370;2023-02-14T01:21:12;102323.31;;;1.72;93.76
61618;BME280;47518;51.776;9.370;2023-02-14T01:23:38;102326.84;;;1.74;93.48
61618;BME280;47518;51.776;9.370;2023-02-14T01:26:04;102327.91;;;1.70;93.25
61618;BME280;47518;51.776;9.370;2023-02-14T01:28:30;102330.31;;;1.95;91.70
61618;BME280;47518;51.776;9.370;2023-02-14T01:30:55;102328.50;;;2.14;90.86
61618;BME280;47518;51.776;9.370;2023-02-14T01:33:21;102327.56;;;2.15;91.31
61618;BME280;47518;51.776;9.370;2023-02-14T01:35:46;102330.16;;;1.79;90.86
61618;BME280;47518;51.776;9.370;2023-02-14T01:38:11;102335.06;;;1.69;92.78
61618;BME280;47518;51.776;9.370;2023-02-14T01:40:42;102328.88;;;1.49;92.59
61618;BME280;47518;51.776;9.370;2023-02-14T01:43:13;102325.25;;;1.50;92.88
61618;BME280;47518;51.776;9.370;2023-02-14T01:45:39;102330.06;;;1.62;92.41
61618;BME280;47518;51.776;9.370;2023-02-14T01:48:04;102319.25;;;1.44;92.41
61618;BME280;47518;51.776;9.370;2023-02-14T01:50:34;102323.47;;;1.69;92.13
61618;BME280;47518;51.776;9.370;2023-02-14T02:08:49;102318.69;;;1.57;91.15
61618;BME280;47518;51.776;9.370;2023-02-14T02:11:16;102312.06;;;1.45;91.17
61618;BME280;47518;51.776;9.370;2023-02-14T02:13:41;102310.00;;;1.70;91.36
61618;BME280;47518;51.776;9.370;2023-02-14T02:16:20;102308.94;;;1.74;89.59
61618;BME280;47518;51.776;9.370;2023-02-14T02:40:08;102297.97;;;1.21;90.84
61618;BME280;47518;51.776;9.370;2023-02-14T02:45:27;102287.88;;;1.46;90.17
61618;BME280;47518;51.776;9.370;2023-02-14T02:48:09;102292.13;;;1.32;90.72
61618;BME280;47518;51.776;9.370;2023-02-14T02:50:42;102272.69;;;1.27;90.47
61618;BME280;47518;51.776;9.370;2023-02-14T02:53:40;102275.88;;;0.96;91.27
61618;BME280;47518;51.776;9.370;2023-02-14T02:56:17;102276.63;;;1.38;89.19
61618;BME280;47518;51.776;9.370;2023-02-14T02:59:09;102272.00;;;1.42;89.64
61618;BME280;47518;51.776;9.370;2023-02-14T03:01:48;102261.78;;;1.50;88.31
61618;BME280;47518;51.776;9.370;2023-02-14T03:04:15;102271.28;;;1.57;89.05
61618;BME280;47518;51.776;9.370;2023-02-14T03:07:02;102265.78;;;1.41;88.83
61618;BME280;47518;51.776;9.370;2023-02-14T03:09:51;102264.75;;;1.44;88.64
61618;BME280;47518;51.776;9.370;2023-02-14T03:31:00;102267.31;;;0.45;91.00
61618;BME280;47518;51.776;9.370;2023-02-14T03:36:28;102254.22;;;0.80;89.69
61618;BME280;47518;51.776;9.370;2023-02-14T03:39:17;102252.75;;;0.52;90.22
61618;BME280;47518;51.776;9.370;2023-02-14T03:41:50;102251.25;;;0.45;90.89
61618;BME280;47518;51.776;9.370;2023-02-14T03:44:20;102236.44;;;0.58;89.49
61618;BME280;47518;51.776;9.370;2023-02-14T03:46:52;102234.09;;;0.71;89.87
61618;BME280;47518;51.776;9.370;2023-02-14T03:49:25;102238.28;;;0.56;90.65
61618;BME280;47518;51.776;9.370;2023-02-14T03:51:53;102238.94;;;0.83;90.44
61618;BME280;47518;51.776;9.370;2023-02-14T03:54:21;102242.66;;;1.00;89.15
61618;BME280;47518;51.776;9.370;2023-02-14T03:56:52;102243.50;;;1.21;88.26
61618;BME280;47518;51.776;9.370;2023-02-14T03:59:24;102244.69;;;1.34;87.98
61618;BME280;47518;51.776;9.370;2023-02-14T04:01:55;102236.41;;;1.38;87.85
61618;BME280;47518;51.776;9.370;2023-02-14T04:04:25;102242.66;;;1.39;88.30
61618;BME280;47518;51.776;9.370;2023-02-14T04:06:51;102236.22;;;1.43;87.73
61618;BME280;47518;51.776;9.370;2023-02-14T04:09:17;102247.28;;;1.35;88.79
61618;BME280;47518;51.776;9.370;2023-02-14T04:11:43;102248.16;;;1.36;88.68
61618;BME280;47518;51.776;9.370;2023-02-14T04:14:10;102247.38;;;1.34;88.92
61618;BME280;47518;51.776;9.370;2023-02-14T04:16:36;102241.84;;;1.37;89.01
61618;BME280;47518;51.776;9.370;2023-02-14T04:19:22;102249.31;;;1.49;89.65
61618;BME280;47518;51.776;9.370;2023-02-14T04:21:48;102233.41;;;1.46;89.74
61618;BME280;47518;51.776;9.370;2023-02-14T04:24:13;102231.44;;;1.50;89.50
61618;BME280;47518;51.776;9.370;2023-02-14T04:26:38;102234.91;;;1.33;88.92
61618;BME280;47518;51.776;9.370;2023-02-14T04:29:03;102238.31;;;1.36;89.19
61618;BME280;47518;51.776;9.370;2023-02-14T04:31:29;102233.44;;;1.26;89.53
61618;BME280;47518;51.776;9.370;2023-02-14T04:33:54;102235.06;;;1.30;89.14
61618;BME280;47518;51.776;9.370;2023-02-14T04:36:19;102233.09;;;1.33;88.77
61618;BME280;47518;51.776;9.370;2023-02-14T04:38:45;102230.19;;;1.38;87.71
61618;BME280;47518;51.776;9.370;2023-02-14T04:41:10;102236.50;;;1.18;88.69
61618;BME280;47518;51.776;9.370;2023-02-14T04:43:35;102227.44;;;1.00;89.31
61618;BME280;47518;51.776;9.370;2023-02-14T04:46:00;102222.38;;;0.94;89.60
61618;BME280;47518;51.776;9.370;2023-02-14T04:48:26;102222.56;;;1.10;88.99
61618;BME280;47518;51.776;9.370;2023-02-14T04:50:52;102222.38;;;0.74;90.11
61618;BME280;47518;51.776;9.370;2023-02-14T04:53:18;102224.34;;;0.70;89.65
61618;BME280;47518;51.776;9.370;2023-02-14T04:55:44;102229.19;;;1.01;88.83
61618;BME280;47518;51.776;9.370;2023-02-14T04:58:10;102214.75;;;1.05;88.17
61618;BME280;47518;51.776;9.370;2023-02-14T05:00:35;102217.41;;;1.05;87.43
61618;BME280;47518;51.776;9.370;2023-02-14T05:03:00;102227.94;;;0.69;88.81
61618;BME280;47518;51.776;9.370;2023-02-14T05:05:26;102224.19;;;0.73;88.42
61618;BME280;47518;51.776;9.370;2023-02-14T05:07:51;102226.25;;;0.87;87.92
61618;BME280;47518;51.776;9.370;2023-02-14T05:10:16;102229.16;;;0.82;86.88
61618;BME280;47518;51.776;9.370;2023-02-14T05:12:42;102228.47;;;0.77;88.58
61618;BME280;47518;51.776;9.370;2023-02-14T05:15:08;102227.75;;;0.74;88.00
61618;BME280;47518;51.776;9.370;2023-02-14T05:17:33;102229.88;;;0.66;88.23
61618;BME280;47518;51.776;9.370;2023-02-14T05:19:58;102225.75;;;0.58;87.88
61618;BME280;47518;51.776;9.370;2023-02-14T05:22:24;102216.84;;;0.58;87.25
61618;BME280;47518;51.776;9.370;2023-02-14T05:24:49;102224.94;;;0.35;87.88
61618;BME280;47518;51.776;9.370;2023-02-14T05:27:14;102222.63;;;0.27;89.26
61618;BME280;47518;51.776;9.370;2023-02-14T05:29:39;102220.59;;;0.12;89.70
61618;BME280;47518;51.776;9.370;2023-02-14T05:32:05;102228.56;;;0.34;88.87
61618;BME280;47518;51.776;9.370;2023-02-14T05:34:30;102228.19;;;0.43;89.08
61618;BME280;47518;51.776;9.370;2023-02-14T05:36:55;102217.47;;;0.43;89.00
61618;BME280;47518;51.776;9.370;2023-02-14T05:39:21;102227.88;;;0.50;88.46
61618;BME280;47518;51.776;9.370;2023-02-14T05:41:47;102220.97;;;0.65;88.32
61618;BME280;47518;51.776;9.370;2023-02-14T05:44:12;102223.16;;;0.55;88.43
61618;BME280;47518;51.776;9.370;2023-02-14T05:46:37;102230.00;;;0.42;89.33
61618;BME280;47518;51.776;9.370;2023-02-14T05:49:03;102230.50;;;0.30;88.72
61618;BME280;47518;51.776;9.370;2023-02-14T05:51:28;102228.38;;;0.38;89.19
61618;BME280;47518;51.776;9.370;2023-02-14T05:53:54;102230.09;;;0.61;88.12
61618;BME280;47518;51.776;9.370;2023-02-14T05:56:19;102228.72;;;0.51;88.77
61618;BME280;47518;51.776;9.370;2023-02-14T05:58:44;102237.41;;;0.36;88.25
61618;BME280;47518;51.776;9.370;2023-02-14T06:01:10;102229.34;;;0.15;89.28
61618;BME280;47518;51.776;9.370;2023-02-14T06:03:35;102236.22;;;0.43;88.81
61618;BME280;47518;51.776;9.370;2023-02-14T06:06:00;102229.47;;;0.54;87.48
61618;BME280;47518;51.776;9.370;2023-02-14T06:08:26;102229.88;;;0.86;86.74
61618;BME280;47518;51.776;9.370;2023-02-14T06:50:21;102249.28;;;-0.15;89.19
61618;BME280;47518;51.776;9.370;2023-02-14T06:52:47;102239.78;;;-0.22;89.67
61618;BME280;47518;51.776;9.370;2023-02-14T06:55:12;102254.75;;;-0.18;90.25
61618;BME280;47518;51.776;9.370;2023-02-14T06:57:38;102248.81;;;-0.03;88.86
61618;BME280;47518;51.776;9.370;2023-02-14T07:00:05;102253.69;;;-0.14;89.45
61618;BME280;47518;51.776;9.370;2023-02-14T07:02:31;102259.72;;;-0.31;89.68
61618;BME280;47518;51.776;9.370;2023-02-14T07:04:56;102250.50;;;-0.24;90.42
61618;BME280;47518;51.776;9.370;2023-02-14T07:07:21;102257.19;;;0.10;89.13
61618;BME280;47518;51.776;9.370;2023-02-14T07:09:47;102252.91;;;0.06;88.42
61618;BME280;47518;51.776;9.370;2023-02-14T07:12:12;102257.31;;;-0.15;89.00
61618;BME280;47518;51.776;9.370;2023-02-14T07:14:38;102247.44;;;0.09;87.84
61618;BME280;47518;51.776;9.370;2023-02-14T07:17:03;102257.16;;;-0.11;88.79
61618;BME280;47518;51.776;9.370;2023-02-14T07:19:28;102263.88;;;-0.24;89.26
61618;BME280;47518;51.776;9.370;2023-02-14T07:21:56;102260.75;;;-0.35;91.24
61618;BME280;47518;51.776;9.370;2023-02-14T07:24:22;102261.22;;;-0.47;90.46
61618;BME280;47518;51.776;9.370;2023-02-14T07:26:48;102261.03;;;-0.19;90.42
61618;BME280;47518;51.776;9.370;2023-02-14T07:29:13;102256.22;;;-0.10;90.80
61618;BME280;47518;51.776;9.370;2023-02-14T07:31:39;102259.75;;;-0.09;90.32
61618;BME280;47518;51.776;9.370;2023-02-14T07:34:04;102252.34;;;0.19;90.13
61618;BME280;47518;51.776;9.370;2023-02-14T07:36:30;102242.38;;;0.23;88.80
61618;BME280;47518;51.776;9.370;2023-02-14T07:38:55;102258.59;;;0.62;87.13
61618;BME280;47518;51.776;9.370;2023-02-14T07:41:22;102250.56;;;0.62;87.55
61618;BME280;47518;51.776;9.370;2023-02-14T07:43:47;102254.75;;;0.68;87.32
61618;BME280;47518;51.776;9.370;2023-02-14T07:46:12;102252.91;;;0.27;87.51
61618;BME280;47518;51.776;9.370;2023-02-14T07:48:38;102264.34;;;0.09;89.82
61618;BME280;47518;51.776;9.370;2023-02-14T07:51:03;102264.53;;;-0.17;91.53
61618;BME280;47518;51.776;9.370;2023-02-14T07:53:29;102270.16;;;-0.25;91.72
61618;BME280;47518;51.776;9.370;2023-02-14T07:55:55;102266.03;;;-0.10;92.24
61618;BME280;47518;51.776;9.370;2023-02-14T07:58:21;102265.84;;;-0.06;92.21
61618;BME280;47518;51.776;9.370;2023-02-14T08:00:46;102261.56;;;0.12;93.01
61618;BME280;47518;51.776;9.370;2023-02-14T08:03:12;102265.88;;;0.58;91.85
61618;BME280;47518;51.776;9.370;2023-02-14T08:05:41;102263.06;;;0.62;91.99
61618;BME280;47518;51.776;9.370;2023-02-14T08:08:06;102258.47;;;0.85;90.49
61618;BME280;47518;51.776;9.370;2023-02-14T08:10:32;102262.34;;;1.19;88.61
61618;BME280;47518;51.776;9.370;2023-02-14T08:12:57;102261.78;;;1.11;88.51
61618;BME280;47518;51.776;9.370;2023-02-14T08:15:30;102258.25;;;0.90;90.26
61618;BME280;47518;51.776;9.370;2023-02-14T08:18:16;102248.63;;;0.86;90.05
61618;BME280;47518;51.776;9.370;2023-02-14T08:20:46;102241.81;;;0.58;91.25
61618;BME280;47518;51.776;9.370;2023-02-14T08:23:18;102246.94;;;0.63;90.94
61618;BME280;47518;51.776;9.370;2023-02-14T08:25:44;102244.66;;;0.54;90.98
61618;BME280;47518;51.776;9.370;2023-02-14T08:28:09;102243.06;;;0.91;91.04
61618;BME280;47518;51.776;9.370;2023-02-14T08:30:36;102237.91;;;1.06;91.59
61618;BME280;47518;51.776;9.370;2023-02-14T08:33:03;102249.34;;;1.10;90.78
61618;BME280;47518;51.776;9.370;2023-02-14T08:35:28;102246.34;;;1.17;90.15
61618;BME280;47518;51.776;9.370;2023-02-14T08:37:54;102240.38;;;1.11;90.50
61618;BME280;47518;51.776;9.370;2023-02-14T08:40:19;102251.66;;;1.57;88.10
61618;BME280;47518;51.776;9.370;2023-02-14T08:42:45;102247.69;;;1.65;87.84
61618;BME280;47518;51.776;9.370;2023-02-14T08:45:11;102239.84;;;1.61;87.92
61618;BME280;47518;51.776;9.370;2023-02-14T08:47:39;102249.00;;;1.75;88.00
61618;BME280;47518;51.776;9.370;2023-02-14T08:50:07;102240.06;;;1.94;88.06
61618;BME280;47518;51.776;9.370;2023-02-14T08:52:33;102239.56;;;1.86;87.88
61618;BME280;47518;51.776;9.370;2023-02-14T08:54:58;102245.59;;;2.27;86.56
61618;BME280;47518;51.776;9.370;2023-02-14T08:57:23;102235.47;;;2.15;86.55
61618;BME280;47518;51.776;9.370;2023-02-14T08:59:49;102247.03;;;2.34;85.93
61618;BME280;47518;51.776;9.370;2023-02-14T09:02:14;102235.66;;;2.46;86.22
61618;BME280;47518;51.776;9.370;2023-02-14T09:04:41;102238.91;;;2.36;86.36
61618;BME280;47518;51.776;9.370;2023-02-14T09:07:06;102245.72;;;2.60;85.11
61618;BME280;47518;51.776;9.370;2023-02-14T09:09:32;102247.91;;;2.52;85.57
61618;BME280;47518;51.776;9.370;2023-02-14T09:11:57;102246.25;;;2.84;85.73
61618;BME280;47518;51.776;9.370;2023-02-14T09:14:23;102235.56;;;3.00;84.82
61618;BME280;47518;51.776;9.370;2023-02-14T09:16:49;102232.91;;;2.82;86.14
61618;BME280;47518;51.776;9.370;2023-02-14T09:19:15;102240.44;;;3.26;84.29
61618;BME280;47518;51.776;9.370;2023-02-14T09:21:40;102235.66;;;3.31;83.91
61618;BME280;47518;51.776;9.370;2023-02-14T09:24:06;102222.78;;;3.38;83.93
61618;BME280;47518;51.776;9.370;2023-02-14T09:26:34;102226.47;;;3.35;84.20
61618;BME280;47518;51.776;9.370;2023-02-14T09:29:01;102228.53;;;3.47;84.00
61618;BME280;47518;51.776;9.370;2023-02-14T09:31:29;102220.38;;;3.80;83.62
61618;BME280;47518;51.776;9.370;2023-02-14T09:33:54;102212.38;;;3.79;83.24
61618;BME280;47518;51.776;9.370;2023-02-14T09:36:40;102217.06;;;4.23;83.37
61618;BME280;47518;51.776;9.370;2023-02-14T09:39:07;102209.91;;;4.37;82.29
61618;BME280;47518;51.776;9.370;2023-02-14T09:41:58;102211.09;;;4.78;80.93
61618;BME280;47518;51.776;9.370;2023-02-14T10:03:28;102195.41;;;4.84;82.53
61618;BME280;47518;51.776;9.370;2023-02-14T10:06:15;102191.19;;;4.94;81.43
61618;BME280;47518;51.776;9.370;2023-02-14T10:09:00;102188.94;;;4.73;81.51
61618;BME280;47518;51.776;9.370;2023-02-14T10:11:30;102185.88;;;4.79;82.27
61618;BME280;47518;51.776;9.370;2023-02-14T10:14:01;102181.66;;;5.17;82.85
61618;BME280;47518;51.776;9.370;2023-02-14T10:16:32;102169.47;;;6.48;79.10
61618;BME280;47518;51.776;9.370;2023-02-14T10:19:06;102189.56;;;6.96;76.45
61618;BME280;47518;51.776;9.370;2023-02-14T10:21:43;102182.53;;;8.53;71.42
61618;BME280;47518;51.776;9.370;2023-02-14T10:24:15;102180.69;;;9.56;65.38
61618;BME280;47518;51.776;9.370;2023-02-14T10:26:42;102169.97;;;11.15;60.66
61618;BME280;47518;51.776;9.370;2023-02-14T10:29:14;102165.25;;;12.94;55.04
61618;BME280;47518;51.776;9.370;2023-02-14T10:32:00;102160.25;;;14.98;48.65
61618;BME280;47518;51.776;9.370;2023-02-14T10:34:47;102158.94;;;16.28;43.89
61618;BME280;47518;51.776;9.370;2023-02-14T10:53:41;102138.56;;;19.05;37.34
61618;BME280;47518;51.776;9.370;2023-02-14T10:56:18;102142.63;;;18.57;37.62
61618;BME280;47518;51.776;9.370;2023-02-14T10:58:44;102138.34;;;19.59;35.69
61618;BME280;47518;51.776;9.370;2023-02-14T11:01:16;102125.88;;;19.63;35.34
61618;BME280;47518;51.776;9.370;2023-02-14T11:03:52;102123.22;;;20.27;34.89
61618;BME280;47518;51.776;9.370;2023-02-14T11:06:21;102126.13;;;19.83;35.64
61618;BME280;47518;51.776;9.370;2023-02-14T11:08:47;102117.41;;;21.14;33.89
61618;BME280;47518;51.776;9.370;2023-02-14T11:24:33;102098.59;;;22.73;30.62
61618;BME280;47518;51.776;9.370;2023-02-14T11:27:16;102096.19;;;22.30;30.65
61618;BME280;47518;51.776;9.370;2023-02-14T11:29:47;102099.63;;;22.52;31.57
61618;BME280;47518;51.776;9.370;2023-02-14T11:32:32;102097.59;;;21.93;31.02
61618;BME280;47518;51.776;9.370;2023-02-14T11:35:05;102088.16;;;21.74;32.17
61618;BME280;47518;51.776;9.370;2023-02-14T11:37:38;102078.88;;;21.13;32.69
61618;BME280;47518;51.776;9.370;2023-02-14T11:40:24;102080.66;;;21.20;32.72
61618;BME280;47518;51.776;9.370;2023-02-14T11:42:53;102077.63;;;19.44;34.50
61618;BME280;47518;51.776;9.370;2023-02-14T11:45:36;102071.81;;;20.26;34.46
61618;BME280;47518;51.776;9.370;2023-02-14T12:04:11;102056.78;;;13.78;46.89
61618;BME280;47518;51.776;9.370;2023-02-14T12:06:38;102045.84;;;13.78;47.75
61618;BME280;47518;51.776;9.370;2023-02-14T12:22:39;102029.16;;;13.36;48.16
61618;BME280;47518;51.776;9.370;2023-02-14T12:25:15;102023.09;;;13.60;49.16
61618;BME280;47518;51.776;9.370;2023-02-14T12:27:48;102024.91;;;12.87;50.60
61618;BME280;47518;51.776;9.370;2023-02-14T12:30:17;102028.53;;;12.31;51.69
61618;BME280;47518;51.776;9.370;2023-02-14T12:32:47;102024.50;;;12.25;51.66
61618;BME280;47518;51.776;9.370;2023-02-14T12:35:16;102024.09;;;12.76;51.00
61618;BME280;47518;51.776;9.370;2023-02-14T12:51:20;102006.53;;;13.43;50.28
61618;BME280;47518;51.776;9.370;2023-02-14T12:53:54;102004.81;;;13.96;49.09
61618;BME280;47518;51.776;9.370;2023-02-14T12:56:46;101998.16;;;14.16;48.19
61618;BME280;47518;51.776;9.370;2023-02-14T13:13:01;101967.88;;;13.38;49.51
61618;BME280;47518;51.776;9.370;2023-02-14T13:29:02;101941.28;;;14.88;44.97
61618;BME280;47518;51.776;9.370;2023-02-14T13:31:29;101921.91;;;15.32;44.14
61618;BME280;47518;51.776;9.370;2023-02-14T13:34:01;101920.91;;;15.57;44.32
61618;BME280;47518;51.776;9.370;2023-02-14T13:36:30;101925.72;;;15.71;43.66
61618;BME280;47518;51.776;9.370;2023-02-14T13:38:57;101926.53;;;16.29;42.13
61618;BME280;47518;51.776;9.370;2023-02-14T13:41:25;101915.72;;;16.91;42.12
61618;BME280;47518;51.776;9.370;2023-02-14T13:43:54;101911.13;;;16.20;42.17
61618;BME280;47518;51.776;9.370;2023-02-14T13:59:31;101897.63;;;14.44;46.68
61618;BME280;47518;51.776;9.370;2023-02-14T14:02:37;101895.53;;;14.38;47.72
61618;BME280;47518;51.776;9.370;2023-02-14T14:18:41;101889.66;;;13.37;50.71
61618;BME280;47518;51.776;9.370;2023-02-14T14:21:14;101886.31;;;13.87;49.14
61618;BME280;47518;51.776;9.370;2023-02-14T14:24:02;101877.56;;;13.40;50.02
61618;BME280;47518;51.776;9.370;2023-02-14T14:26:35;101871.34;;;13.73;48.96
61618;BME280;47518;51.776;9.370;2023-02-14T14:29:07;101862.94;;;14.19;48.08
61618;BME280;47518;51.776;9.370;2023-02-14T14:31:34;101869.00;;;14.05;47.75
61618;BME280;47518;51.776;9.370;2023-02-14T14:34:00;101875.28;;;13.97;48.17
61618;BME280;47518;51.776;9.370;2023-02-14T14:36:26;101871.66;;;13.45;49.73
61618;BME280;47518;51.776;9.370;2023-02-14T14:38:52;101863.50;;;12.99;50.17
61618;BME280;47518;51.776;9.370;2023-02-14T14:41:19;101865.34;;;12.81;51.29
61618;BME280;47518;51.776;9.370;2023-02-14T14:43:51;101852.00;;;12.23;52.82
61618;BME280;47518;51.776;9.370;2023-02-14T14:46:17;101857.75;;;12.20;53.23
61618;BME280;47518;51.776;9.370;2023-02-14T14:48:45;101859.47;;;12.48;52.57
61618;BME280;47518;51.776;9.370;2023-02-14T15:04:34;101832.25;;;12.11;54.72
61618;BME280;47518;51.776;9.370;2023-02-14T15:07:24;101840.16;;;12.42;54.90
61618;BME280;47518;51.776;9.370;2023-02-14T15:09:51;101836.59;;;12.04;55.70
61618;BME280;47518;51.776;9.370;2023-02-14T15:12:21;101837.94;;;11.71;57.34
61618;BME280;47518;51.776;9.370;2023-02-14T15:15:10;101842.13;;;11.56;57.94
61618;BME280;47518;51.776;9.370;2023-02-14T15:17:37;101831.91;;;11.77;57.72
61618;BME280;47518;51.776;9.370;2023-02-14T15:20:06;101834.22;;;11.62;58.63
61618;BME280;47518;51.776;9.370;2023-02-14T15:25:31;101827.91;;;11.72;58.79
61618;BME280;47518;51.776;9.370;2023-02-14T15:27:57;101828.53;;;11.46;59.35
61618;BME280;47518;51.776;9.370;2023-02-14T15:30:25;101817.34;;;11.39;59.01
61618;BME280;47518;51.776;9.370;2023-02-14T15:32:55;101835.97;;;11.44;59.07
61618;BME280;47518;51.776;9.370;2023-02-14T15:35:25;101835.25;;;11.52;59.27
61618;BME280;47518;51.776;9.370;2023-02-14T15:37:53;101831.13;;;11.38;59.65
61618;BME280;47518;51.776;9.370;2023-02-14T15:40:23;101822.09;;;11.28;60.38
61618;BME280;47518;51.776;9.370;2023-02-14T15:42:50;101820.22;;;11.19;59.93
61618;BME280;47518;51.776;9.370;2023-02-14T15:45:29;101823.41;;;11.14;60.19
61618;BME280;47518;51.776;9.370;2023-02-14T15:48:01;101817.78;;;10.96;59.82
61618;BME280;47518;51.776;9.370;2023-02-14T15:50:30;101822.38;;;10.86;60.33
61618;BME280;47518;51.776;9.370;2023-02-14T15:53:07;101826.69;;;11.18;60.61
61618;BME280;47518;51.776;9.370;2023-02-14T15:55:34;101818.50;;;10.98;60.58
61618;BME280;47518;51.776;9.370;2023-02-14T15:58:03;101832.41;;;11.05;60.26
61618;BME280;47518;51.776;9.370;2023-02-14T16:00:29;101826.53;;;11.09;60.32
61618;BME280;47518;51.776;9.370;2023-02-14T16:02:59;101829.22;;;10.61;61.20
61618;BME280;47518;51.776;9.370;2023-02-14T16:05:27;101833.63;;;10.43;62.07
61618;BME280;47518;51.776;9.370;2023-02-14T16:07:58;101828.00;;;10.35;62.62
61618;BME280;47518;51.776;9.370;2023-02-14T16:10:27;101828.06;;;10.64;61.60
61618;BME280;47518;51.776;9.370;2023-02-14T16:13:03;101825.34;;;10.64;62.22
61618;BME280;47518;51.776;9.370;2023-02-14T16:15:35;101823.31;;;10.46;61.99
61618;BME280;47518;51.776;9.370;2023-02-14T16:18:01;101828.28;;;10.41;62.39
61618;BME280;47518;51.776;9.370;2023-02-14T16:20:40;101826.25;;;10.03;63.45
61618;BME280;47518;51.776;9.370;2023-02-14T16:36:25;101824.28;;;9.54;65.93
61618;BME280;47518;51.776;9.370;2023-02-14T16:38:51;101821.50;;;9.65;65.70
61618;BME280;47518;51.776;9.370;2023-02-14T16:41:22;101831.50;;;9.44;66.39
61618;BME280;47518;51.776;9.370;2023-02-14T16:43:48;101835.88;;;9.35;66.68
61618;BME280;47518;51.776;9.370;2023-02-14T16:46:16;101838.72;;;9.01;67.90
61618;BME280;47518;51.776;9.370;2023-02-14T16:48:43;101842.34;;;8.91;67.85
61618;BME280;47518;51.776;9.370;2023-02-14T16:51:12;101837.63;;;8.61;70.47
61618;BME280;47518;51.776;9.370;2023-02-14T16:53:38;101845.19;;;8.89;69.35
61618;BME280;47518;51.776;9.370;2023-02-14T16:56:04;101839.97;;;8.65;69.07
61618;BME280;47518;51.776;9.370;2023-02-14T16:58:33;101833.09;;;8.50;69.88
61618;BME280;47518;51.776;9.370;2023-02-14T17:01:00;101845.22;;;8.35;70.79
61618;BME280;47518;51.776;9.370;2023-02-14T17:03:25;101847.03;;;8.23;72.24
61618;BME280;47518;51.776;9.370;2023-02-14T17:05:51;101845.31;;;8.22;73.29
61618;BME280;47518;51.776;9.370;2023-02-14T17:08:17;101839.00;;;8.44;72.29
61618;BME280;47518;51.776;9.370;2023-02-14T17:10:44;101846.41;;;8.53;71.78
61618;BME280;47518;51.776;9.370;2023-02-14T17:13:11;101838.91;;;8.45;72.52
61618;BME280;47518;51.776;9.370;2023-02-14T17:15:37;101837.88;;;8.69;71.06
61618;BME280;47518;51.776;9.370;2023-02-14T17:18:08;101842.38;;;8.36;71.03
61618;BME280;47518;51.776;9.370;2023-02-14T17:20:35;101846.28;;;7.76;72.22
61618;BME280;47518;51.776;9.370;2023-02-14T17:23:01;101848.59;;;7.70;71.56
61618;BME280;47518;51.776;9.370;2023-02-14T17:25:27;101844.84;;;7.48;72.40
61618;BME280;47518;51.776;9.370;2023-02-14T17:27:52;101859.63;;;7.44;71.93
61618;BME280;47518;51.776;9.370;2023-02-14T17:30:21;101856.63;;;7.36;71.89
61618;BME280;47518;51.776;9.370;2023-02-14T17:32:47;101856.97;;;7.20;73.41
61618;BME280;47518;51.776;9.370;2023-02-14T17:35:14;101852.25;;;7.11;75.29
61618;BME280;47518;51.776;9.370;2023-02-14T17:37:40;101856.50;;;7.02;74.07
61618;BME280;47518;51.776;9.370;2023-02-14T17:40:06;101857.53;;;7.13;74.98
61618;BME280;47518;51.776;9.370;2023-02-14T17:42:33;101857.34;;;7.03;74.04